createdAt,value
2023-04-29T00:02:16.454Z,13.62
2023-04-29T00:07:18.288Z,13.56
2023-04-29T00:12:19.823Z,13.52
2023-04-29T00:17:21.572Z,13.66
2023-04-29T00:22:23.157Z,13.63
2023-04-29T00:27:25.087Z,13.64
2023-04-29T00:32:26.953Z,13.64
2023-04-29T00:37:28.552Z,13.50
2023-04-29T00:42:31.441Z,13.48
2023-04-29T00:47:33.177Z,13.51
2023-04-29T00:52:35.019Z,13.54
2023-04-29T00:57:36.656Z,13.63
2023-04-29T01:02:38.821Z,13.75
2023-04-29T01:08:10.739Z,13.85
2023-04-29T01:13:30.385Z,13.85
2023-04-29T01:18:54.286Z,13.79
2023-04-29T01:23:59.586Z,13.79
2023-04-29T01:29:35.366Z,13.71
2023-04-29T01:35:00.558Z,13.79
2023-04-29T01:40:15.961Z,13.65
2023-04-29T01:45:29.615Z,13.63
2023-04-29T01:50:31.297Z,13.56
2023-04-29T01:55:41.119Z,13.47
2023-04-29T02:00:59.867Z,13.36
2023-04-29T02:06:04.537Z,13.51
2023-04-29T02:11:06.823Z,13.39
2023-04-29T02:16:16.836Z,13.37
2023-04-29T02:21:25.433Z,13.21
2023-04-29T02:26:28.284Z,13.23
2023-04-29T02:31:31.148Z,13.27
2023-04-29T02:36:32.987Z,13.20
2023-04-29T02:41:34.708Z,13.28
2023-04-29T02:46:36.427Z,13.18
2023-04-29T02:51:37.961Z,13.10
2023-04-29T02:56:40.954Z,13.07
2023-04-29T03:01:42.634Z,12.98
2023-04-29T03:06:44.604Z,12.94
2023-04-29T03:11:46.944Z,12.96
2023-04-29T03:16:48.823Z,12.87
2023-04-29T03:21:52.204Z,12.74
2023-04-29T03:26:55.693Z,12.76
2023-04-29T03:31:58.001Z,12.65
2023-04-29T03:36:59.967Z,12.68
2023-04-29T03:42:03.229Z,12.47
2023-04-29T03:47:05.156Z,12.38
2023-04-29T03:52:06.980Z,12.24
2023-04-29T03:57:09.039Z,12.07
2023-04-29T04:02:10.804Z,11.99
2023-04-29T04:07:12.692Z,11.93
2023-04-29T04:12:34.222Z,11.94
2023-04-29T04:17:35.996Z,11.95
2023-04-29T04:22:38.903Z,11.93
2023-04-29T04:27:54.560Z,11.89
2023-04-29T04:33:08.047Z,11.67
2023-04-29T04:38:18.138Z,11.70
2023-04-29T04:43:19.848Z,11.75
2023-04-29T04:48:21.631Z,11.81
2023-04-29T04:53:25.441Z,11.77
2023-04-29T04:58:32.028Z,11.84
2023-04-29T05:03:33.937Z,11.88
2023-04-29T05:08:35.940Z,11.75
2023-04-29T05:13:39.695Z,11.76
2023-04-29T05:18:41.529Z,11.60
2023-04-29T05:23:43.699Z,11.73
2023-04-29T05:28:45.725Z,11.79
2023-04-29T05:33:49.020Z,11.63
2023-04-29T05:38:50.861Z,11.80
2023-04-29T05:43:53.561Z,11.66
2023-04-29T05:48:55.226Z,11.72
2023-04-29T05:53:56.866Z,11.76
2023-04-29T05:58:58.910Z,11.78
2023-04-29T06:04:00.953Z,11.73
2023-04-29T06:09:26.484Z,11.94
2023-04-29T06:14:30.964Z,11.85
2023-04-29T06:19:33.734Z,11.86
2023-04-29T06:24:35.361Z,12.03
2023-04-29T06:29:37.791Z,11.86
2023-04-29T06:34:39.363Z,11.94
2023-04-29T06:40:02.554Z,12.00
2023-04-29T06:45:30.582Z,12.11
2023-04-29T06:50:52.558Z,11.86
2023-04-29T06:55:54.253Z,12.08
2023-04-29T07:00:56.970Z,12.10
2023-04-29T07:05:58.762Z,12.30
2023-04-29T07:11:00.358Z,12.16
2023-04-29T07:16:02.037Z,12.23
2023-04-29T07:21:03.684Z,12.10
2023-04-29T07:26:13.575Z,12.39
2023-04-29T07:31:17.605Z,12.50
2023-04-29T07:36:19.221Z,12.71
2023-04-29T07:41:21.069Z,13.10
2023-04-29T07:46:22.910Z,13.37
2023-04-29T07:51:24.675Z,13.59
2023-04-29T07:56:26.418Z,13.87
2023-04-29T08:01:28.327Z,13.86
2023-04-29T08:06:29.896Z,14.28
2023-04-29T08:11:31.432Z,14.38
2023-04-29T08:16:33.137Z,14.06
2023-04-29T08:21:34.869Z,13.96
2023-04-29T08:26:36.595Z,13.80
2023-04-29T08:31:38.309Z,13.33
2023-04-29T08:36:39.892Z,13.43
2023-04-29T08:41:41.691Z,13.78
2023-04-29T08:46:46.365Z,13.95
2023-04-29T08:51:50.795Z,13.74
2023-04-29T08:56:53.490Z,13.71
2023-04-29T09:01:55.834Z,13.71
2023-04-29T09:06:59.396Z,13.66
2023-04-29T09:12:01.148Z,14.28
2023-04-29T09:17:02.848Z,15.33
2023-04-29T09:22:05.513Z,15.58
2023-04-29T09:27:07.196Z,15.65
2023-04-29T09:32:19.661Z,15.72
2023-04-29T09:37:26.198Z,15.67
2023-04-29T09:42:27.882Z,15.52
2023-04-29T09:47:30.378Z,15.28
2023-04-29T09:52:40.732Z,15.35
2023-04-29T09:57:45.030Z,14.96
2023-04-29T10:02:48.610Z,14.88
2023-04-29T10:07:51.316Z,14.83
2023-04-29T10:12:54.115Z,14.92
2023-04-29T10:18:10.326Z,14.52
2023-04-29T10:23:13.511Z,14.78
2023-04-29T10:28:15.925Z,15.00
2023-04-29T10:33:18.848Z,14.64
2023-04-29T10:38:32.556Z,14.53
2023-04-29T10:43:34.208Z,14.20
2023-04-29T10:48:35.884Z,14.33
2023-04-29T10:54:01.174Z,14.21
2023-04-29T10:59:02.711Z,14.12
2023-04-29T11:04:04.331Z,14.28
2023-04-29T11:09:13.501Z,14.13
2023-04-29T11:14:21.032Z,13.66
2023-04-29T11:19:25.082Z,13.69
2023-04-29T11:24:27.127Z,13.62
2023-04-29T11:29:30.565Z,13.66
2023-04-29T11:34:32.203Z,13.69
2023-04-29T11:39:36.677Z,13.94
2023-04-29T11:44:38.347Z,14.02
2023-04-29T11:49:40.143Z,14.42
2023-04-29T11:54:41.902Z,14.20
2023-04-29T11:59:43.784Z,14.26
2023-04-29T12:04:48.404Z,14.32
2023-04-29T12:09:50.554Z,14.32
2023-04-29T12:14:52.573Z,14.24
2023-04-29T12:19:54.617Z,14.08
2023-04-29T12:24:57.279Z,14.10
2023-04-29T12:29:58.875Z,14.48
2023-04-29T12:35:00.541Z,14.93
2023-04-29T12:40:02.133Z,15.60
2023-04-29T12:45:06.330Z,15.92
2023-04-29T12:50:08.655Z,15.62
2023-04-29T12:55:11.515Z,15.54
2023-04-29T13:00:13.794Z,15.62
2023-04-29T13:05:15.968Z,15.88
2023-04-29T13:10:17.602Z,15.96
2023-04-29T13:15:19.262Z,15.58
2023-04-29T13:20:20.897Z,15.70
2023-04-29T13:25:22.496Z,16.31
2023-04-29T13:30:24.336Z,16.95
2023-04-29T13:35:25.906Z,17.36
2023-04-29T13:40:28.490Z,18.33
2023-04-29T13:45:30.574Z,18.23
2023-04-29T13:56:01.790Z,17.83
2023-04-29T14:06:02.980Z,18.31
2023-04-29T14:11:04.606Z,17.63
2023-04-29T14:16:06.548Z,17.73
2023-04-29T14:21:11.137Z,17.59
2023-04-29T14:26:27.117Z,18.50
2023-04-29T14:31:31.440Z,18.31
2023-04-29T14:36:33.065Z,17.77
2023-04-29T14:41:34.637Z,17.04
2023-04-29T14:46:36.728Z,17.09
2023-04-29T14:51:38.580Z,17.22
2023-04-29T14:56:47.006Z,16.66
2023-04-29T15:01:48.688Z,16.54
2023-04-29T15:06:51.664Z,16.58
2023-04-29T15:11:53.754Z,16.16
2023-04-29T15:16:55.552Z,16.48
2023-04-29T15:21:57.172Z,16.64
2023-04-29T15:26:58.796Z,16.83
2023-04-29T15:32:00.706Z,17.18
2023-04-29T15:37:02.479Z,17.38
2023-04-29T15:42:04.138Z,17.48
2023-04-29T15:47:05.991Z,17.50
2023-04-29T15:52:07.813Z,17.44
2023-04-29T15:57:09.801Z,17.53
2023-04-29T16:02:11.529Z,17.51
2023-04-29T16:07:13.189Z,17.67
2023-04-29T16:12:14.800Z,17.94
2023-04-29T16:17:16.668Z,17.55
2023-04-29T16:22:18.465Z,17.58
2023-04-29T16:27:20.156Z,17.64
2023-04-29T16:32:21.906Z,17.81
2023-04-29T16:37:23.691Z,17.33
2023-04-29T16:42:25.269Z,17.18
2023-04-29T16:47:27.094Z,16.63
2023-04-29T16:52:28.700Z,16.97
2023-04-29T16:57:30.361Z,16.96
2023-04-29T17:02:32.506Z,16.99
2023-04-29T17:07:34.164Z,16.95
2023-04-29T17:12:35.861Z,16.86
2023-04-29T17:17:37.714Z,16.80
2023-04-29T17:22:39.538Z,16.50
2023-04-29T17:27:43.817Z,16.37
2023-04-29T17:32:45.518Z,16.33
2023-04-29T17:37:47.244Z,16.28
2023-04-29T17:42:49.006Z,16.20
2023-04-29T17:47:51.385Z,16.14
2023-04-29T17:52:53.083Z,16.12
2023-04-29T17:57:55.523Z,15.93
2023-04-29T18:02:57.122Z,15.85
2023-04-29T18:07:58.824Z,15.61
2023-04-29T18:13:00.573Z,15.31
2023-04-29T18:18:02.192Z,14.97
2023-04-29T18:23:07.535Z,14.67
2023-04-29T18:28:23.976Z,14.41
2023-04-29T18:33:26.491Z,14.11
2023-04-29T18:38:28.154Z,13.92
2023-04-29T18:43:29.988Z,13.76
2023-04-29T18:48:31.670Z,13.64
2023-04-29T18:53:33.495Z,13.61
2023-04-29T18:58:35.059Z,13.60
2023-04-29T19:03:37.577Z,13.67
2023-04-29T19:08:39.221Z,13.79
2023-04-29T19:13:40.753Z,13.77
2023-04-29T19:18:42.516Z,13.71
2023-04-29T19:23:44.296Z,13.70
2023-04-29T19:28:45.817Z,13.61
2023-04-29T19:33:47.480Z,13.52
2023-04-29T19:38:49.192Z,13.42
2023-04-29T19:43:51.040Z,13.21
2023-04-29T19:48:52.680Z,13.04
2023-04-29T19:53:55.889Z,12.84
2023-04-29T19:58:57.549Z,12.64
2023-04-29T20:03:59.120Z,12.54
2023-04-29T20:09:00.796Z,12.53
2023-04-29T20:14:02.808Z,12.51
2023-04-29T20:19:04.390Z,12.48
2023-04-29T20:24:06.495Z,12.51
2023-04-29T20:29:08.436Z,12.56
2023-04-29T20:34:09.979Z,12.57
2023-04-29T20:39:11.854Z,12.71
2023-04-29T20:44:13.372Z,12.78
2023-04-29T20:49:15.013Z,12.91
2023-04-29T20:54:16.642Z,12.96
2023-04-29T20:59:18.372Z,12.89
2023-04-29T21:04:20.040Z,12.66
2023-04-29T21:09:22.128Z,12.62
2023-04-29T21:14:23.777Z,12.61
2023-04-29T21:19:25.404Z,12.67
2023-04-29T21:24:27.393Z,12.78
2023-04-29T21:29:28.942Z,12.83
2023-04-29T21:34:30.610Z,12.84
2023-04-29T21:39:32.665Z,12.75
2023-04-29T21:44:34.385Z,12.63
2023-04-29T21:49:36.077Z,12.47
2023-04-29T21:54:37.601Z,12.35
2023-04-29T21:59:39.158Z,12.21
2023-04-29T22:04:41.361Z,11.88
2023-04-29T22:09:43.072Z,11.66
2023-04-29T22:14:45.455Z,11.34
2023-04-29T22:19:47.242Z,11.05
2023-04-29T22:24:48.993Z,11.07
2023-04-29T22:29:50.539Z,10.90
2023-04-29T22:34:52.258Z,10.73
2023-04-29T22:39:54.072Z,10.56
2023-04-29T22:44:55.916Z,10.60
2023-04-29T22:49:57.844Z,10.46
2023-04-29T22:54:59.944Z,10.37
2023-04-29T23:00:01.547Z,10.22
2023-04-29T23:05:03.765Z,10.05
2023-04-29T23:10:05.978Z,10.06
2023-04-29T23:15:07.765Z,9.92
2023-04-29T23:20:09.914Z,9.77
2023-04-29T23:25:11.914Z,9.67
2023-04-29T23:30:13.805Z,9.59
2023-04-29T23:35:15.338Z,9.47
2023-04-29T23:40:17.137Z,9.49
2023-04-29T23:45:18.776Z,9.45
2023-04-29T23:50:20.608Z,9.43
2023-04-29T23:55:22.174Z,9.50
